createdAt,value
2018-03-30T00:00:16.564Z,159570.12
2018-03-30T00:02:44.204Z,159536.98
2018-03-30T00:05:11.854Z,159543.45
2018-03-30T00:07:39.461Z,159532.39
2018-03-30T00:10:07.153Z,159572.11
2018-03-30T00:12:34.816Z,159576.64
2018-03-30T00:15:02.448Z,159559.11
2018-03-30T00:17:30.051Z,159590.30
2018-03-30T00:19:57.714Z,159654.69
2018-03-30T00:22:25.316Z,159640.39
2018-03-30T00:24:52.974Z,159635.20
2018-03-30T00:27:20.766Z,159616.97
2018-03-30T00:29:48.531Z,159604.59
2018-03-30T00:32:16.152Z,159613.72
2018-03-30T00:34:43.752Z,159638.44
2018-03-30T00:37:11.383Z,159641.03
2018-03-30T00:39:39.042Z,159671.64
2018-03-30T00:42:07.044Z,159629.97
2018-03-30T00:44:34.650Z,159637.16
2018-03-30T00:47:02.243Z,159637.16
2018-03-30T00:49:29.879Z,159673.59
2018-03-30T00:51:57.488Z,159669.70
2018-03-30T00:54:25.150Z,159622.84
2018-03-30T00:56:52.751Z,159597.48
2018-03-30T00:59:20.451Z,159620.91
2018-03-30T01:01:48.092Z,159607.89
2018-03-30T01:04:15.706Z,159594.87
2018-03-30T01:06:43.373Z,159595.53
2018-03-30T01:09:11.045Z,159549.34
2018-03-30T01:11:38.658Z,159557.11
2018-03-30T01:14:06.321Z,159555.81
2018-03-30T01:16:33.927Z,159563.64
2018-03-30T01:19:01.532Z,159549.98
2018-03-30T01:21:29.913Z,159565.58
2018-03-30T01:23:57.525Z,159546.75
2018-03-30T01:26:25.182Z,159569.47
2018-03-30T01:28:52.855Z,159542.81
2018-03-30T01:31:20.471Z,159546.75
2018-03-30T01:33:48.129Z,159566.88
2018-03-30T01:36:15.744Z,159548.03
2018-03-30T01:38:43.383Z,159561.69
2018-03-30T01:41:11.039Z,159509.62
2018-03-30T01:43:38.638Z,159548.69
2018-03-30T01:46:06.252Z,159514.20
2018-03-30T01:48:33.986Z,159540.86
2018-03-30T01:51:01.604Z,159561.05
2018-03-30T01:53:29.253Z,159570.81
2018-03-30T01:55:57.079Z,159529.81
2018-03-30T01:58:24.848Z,159551.28
2018-03-30T02:00:52.635Z,159568.17
2018-03-30T02:03:20.412Z,159606.55
2018-03-30T02:05:48.152Z,159563.64
2018-03-30T02:08:15.817Z,159596.19
2018-03-30T02:10:43.502Z,159609.19
2018-03-30T02:13:11.103Z,159540.86
2018-03-30T02:15:38.697Z,159539.56
2018-03-30T02:18:06.343Z,159605.25
2018-03-30T02:20:33.994Z,159607.89
2018-03-30T02:23:01.586Z,159557.11
2018-03-30T02:25:29.185Z,159625.44
2018-03-30T02:27:56.840Z,159615.67
2018-03-30T02:30:25.006Z,159626.73
2018-03-30T02:32:52.738Z,159574.06
2018-03-30T02:35:20.414Z,159585.13
2018-03-30T02:37:48.144Z,159636.50
2018-03-30T02:40:15.957Z,159666.41
2018-03-30T02:42:43.636Z,159619.61
2018-03-30T02:45:16.478Z,159702.20
2018-03-30T02:47:44.089Z,159664.47
2018-03-30T02:50:11.697Z,159686.59
2018-03-30T02:52:39.373Z,159628.69
2018-03-30T02:55:06.970Z,159618.97
2018-03-30T02:57:34.818Z,159661.22
2018-03-30T03:00:02.444Z,159680.13
2018-03-30T03:02:30.066Z,159671.64
2018-03-30T03:04:57.699Z,159611.13
2018-03-30T03:07:25.348Z,159678.78
2018-03-30T03:09:53.044Z,159726.28
2018-03-30T03:12:20.639Z,159645.63
2018-03-30T03:14:48.242Z,159700.25
2018-03-30T03:17:15.890Z,159713.27
2018-03-30T03:19:43.478Z,159669.70
2018-03-30T03:22:11.152Z,159680.77
2018-03-30T03:24:38.757Z,159622.20
2018-03-30T03:27:06.374Z,159642.33
2018-03-30T03:29:34.015Z,159664.47
2018-03-30T03:32:01.631Z,159654.69
2018-03-30T03:34:29.286Z,159697.67
2018-03-30T03:36:56.898Z,159661.88
2018-03-30T03:39:24.490Z,159717.22
2018-03-30T03:41:52.166Z,159691.14
2018-03-30T03:44:19.788Z,159687.91
2018-03-30T03:46:47.422Z,159648.22
2018-03-30T03:49:15.100Z,159665.11
2018-03-30T03:51:42.840Z,159669.70
2018-03-30T03:54:10.664Z,159664.47
2018-03-30T03:56:38.280Z,159652.11
2018-03-30T03:59:05.915Z,159641.03
2018-03-30T04:01:33.575Z,159614.38
2018-03-30T04:04:01.174Z,159627.38
2018-03-30T04:06:28.771Z,159570.81
2018-03-30T04:08:56.412Z,159603.95
2018-03-30T04:11:24.031Z,159616.97
2018-03-30T04:13:51.703Z,159632.61
2018-03-30T04:16:19.366Z,159629.97
2018-03-30T04:18:46.971Z,159625.44
2018-03-30T04:21:14.612Z,159603.31
2018-03-30T04:23:42.225Z,159576.64
2018-03-30T04:26:09.919Z,159599.42
2018-03-30T04:28:37.555Z,159642.98
2018-03-30T04:31:05.387Z,159660.58
2018-03-30T04:33:33.024Z,159641.03
2018-03-30T04:36:00.632Z,159702.20
2018-03-30T04:38:28.313Z,159663.81
2018-03-30T04:40:56.298Z,159674.23
2018-03-30T04:43:23.907Z,159613.72
2018-03-30T04:45:51.521Z,159646.27
2018-03-30T04:48:19.145Z,159592.25
2018-03-30T04:50:46.748Z,159583.81
2018-03-30T04:53:14.744Z,159654.05
2018-03-30T04:55:42.517Z,159670.34
2018-03-30T04:58:10.333Z,159634.56
2018-03-30T05:00:38.102Z,159700.25
2018-03-30T05:03:05.766Z,159647.56
2018-03-30T05:05:33.508Z,159645.63
2018-03-30T05:08:01.336Z,159605.25
2018-03-30T05:10:29.002Z,159618.97
2018-03-30T05:12:56.685Z,159617.61
2018-03-30T05:15:24.471Z,159615.67
2018-03-30T05:17:52.242Z,159676.19
2018-03-30T05:20:19.918Z,159645.63
2018-03-30T05:22:47.584Z,159656.69
2018-03-30T05:25:15.436Z,159679.42
2018-03-30T05:27:43.247Z,159671.00
2018-03-30T05:30:10.924Z,159663.81
2018-03-30T05:32:38.558Z,159674.89
2018-03-30T05:35:06.154Z,159721.75
2018-03-30T05:37:34.151Z,159729.56
2018-03-30T05:40:01.832Z,159741.28
2018-03-30T05:42:29.548Z,159685.30
2018-03-30T05:44:57.170Z,159709.38
2018-03-30T05:47:24.906Z,159675.53
2018-03-30T05:49:52.625Z,159676.19
2018-03-30T05:52:20.415Z,159715.22
2018-03-30T05:54:48.107Z,159689.84
2018-03-30T05:57:15.761Z,159717.86
2018-03-30T05:59:43.545Z,159730.22
2018-03-30T06:02:11.217Z,159674.89
2018-03-30T06:04:38.951Z,159660.58
2018-03-30T06:07:06.780Z,159656.69
2018-03-30T06:09:34.448Z,159635.20
2018-03-30T06:12:02.127Z,159655.39
2018-03-30T06:14:30.010Z,159648.86
2018-03-30T06:16:57.776Z,159700.25
2018-03-30T06:19:25.973Z,159712.63
2018-03-30T06:21:53.752Z,159664.47
2018-03-30T06:24:21.405Z,159656.05
2018-03-30T06:26:49.149Z,159682.06
2018-03-30T06:29:16.882Z,159648.22
2018-03-30T06:31:44.655Z,159665.11
2018-03-30T06:34:12.433Z,159672.94
2018-03-30T06:36:40.213Z,159642.98
2018-03-30T06:39:08.083Z,159669.70
2018-03-30T06:41:35.872Z,159719.16
2018-03-30T06:44:03.615Z,159769.91
2018-03-30T06:46:31.428Z,159787.47
2018-03-30T06:48:59.201Z,159781.63
2018-03-30T06:51:26.871Z,159779.03
2018-03-30T06:53:54.570Z,159801.83
2018-03-30T06:56:22.332Z,159751.66
2018-03-30T06:58:50.011Z,159829.16
2018-03-30T07:01:17.788Z,159794.64
2018-03-30T07:03:45.456Z,159817.44
2018-03-30T07:06:13.230Z,159784.87
2018-03-30T07:08:40.905Z,159882.52
2018-03-30T07:11:08.695Z,159891.64
2018-03-30T07:13:36.472Z,159881.22
2018-03-30T07:16:04.261Z,159891.64
2018-03-30T07:18:31.996Z,159927.47
2018-03-30T07:20:59.662Z,159894.25
2018-03-30T07:23:27.482Z,159931.36
2018-03-30T07:25:55.163Z,159872.75
2018-03-30T07:28:22.782Z,159879.28
2018-03-30T07:30:50.613Z,159881.88
2018-03-30T07:33:18.494Z,159890.34
2018-03-30T07:35:46.082Z,159863.02
2018-03-30T07:38:13.843Z,159857.78
2018-03-30T07:40:41.695Z,159892.94
2018-03-30T07:43:09.398Z,159855.83
2018-03-30T07:45:37.072Z,159869.50
2018-03-30T07:48:04.920Z,159867.56
2018-03-30T07:50:32.629Z,159883.17
2018-03-30T07:53:00.408Z,159885.11
2018-03-30T07:55:28.140Z,159900.13
2018-03-30T07:57:55.964Z,159976.95
2018-03-30T08:00:23.634Z,159986.73
2018-03-30T08:02:51.462Z,159995.86
2018-03-30T08:05:19.087Z,159984.14
2018-03-30T08:07:46.770Z,160030.34
2018-03-30T08:10:14.649Z,160072.72
2018-03-30T08:12:42.426Z,160004.30
2018-03-30T08:15:10.203Z,160126.77
2018-03-30T08:17:38.086Z,160147.63
2018-03-30T08:20:05.757Z,160151.53
2018-03-30T08:22:33.568Z,160128.11
2018-03-30T08:25:01.317Z,160119.62
2018-03-30T08:27:28.924Z,160115.69
2018-03-30T08:29:57.079Z,160201.09
2018-03-30T08:32:24.857Z,160254.52
2018-03-30T08:34:52.785Z,160344.45
2018-03-30T08:37:20.617Z,160362.08
2018-03-30T08:39:48.278Z,160292.97
2018-03-30T08:42:16.270Z,160315.14
2018-03-30T08:44:44.003Z,160397.34
2018-03-30T08:47:11.830Z,160486.02
2018-03-30T08:49:39.578Z,160459.28
2018-03-30T08:52:07.176Z,160532.98
2018-03-30T08:54:34.957Z,160507.55
2018-03-30T08:57:02.739Z,160417.53
2018-03-30T08:59:30.402Z,160428.61
2018-03-30T09:01:58.090Z,160457.34
2018-03-30T09:04:26.046Z,160483.42
2018-03-30T09:06:53.850Z,160574.72
2018-03-30T09:09:21.515Z,160504.95
2018-03-30T09:11:49.191Z,160534.94
2018-03-30T09:14:16.850Z,160543.44
2018-03-30T09:16:44.547Z,160555.83
2018-03-30T09:19:12.144Z,160560.38
2018-03-30T09:21:39.867Z,160660.19
2018-03-30T09:24:07.892Z,160535.59
2018-03-30T09:26:35.546Z,160566.27
2018-03-30T09:29:03.295Z,160603.45
2018-03-30T09:31:31.012Z,160600.16
2018-03-30T09:33:58.792Z,160603.45
2018-03-30T09:36:26.445Z,160669.98
2018-03-30T09:38:54.250Z,160744.37
2018-03-30T09:41:22.021Z,160748.31
2018-03-30T09:43:49.691Z,160878.19
2018-03-30T09:46:17.476Z,160933.72
2018-03-30T09:48:45.552Z,160908.91
2018-03-30T09:51:13.291Z,160934.36
2018-03-30T09:53:40.886Z,160921.95
2018-03-30T09:56:08.535Z,160942.86
2018-03-30T09:58:36.216Z,160912.81
2018-03-30T10:01:18.803Z,160972.23
2018-03-30T10:03:49.243Z,160997.75
2018-03-30T10:06:17.008Z,160999.70
2018-03-30T10:08:44.675Z,161045.44
2018-03-30T10:11:13.484Z,161061.09
2018-03-30T10:13:41.265Z,161068.95
2018-03-30T10:16:08.938Z,161100.33
2018-03-30T10:18:36.818Z,161204.19
2018-03-30T10:21:04.598Z,161102.28
2018-03-30T10:23:32.273Z,161212.69
2018-03-30T10:25:59.946Z,161147.97
2018-03-30T10:28:27.687Z,161143.42
2018-03-30T10:30:55.310Z,161227.72
2018-03-30T10:33:22.965Z,161248.64
2018-03-30T10:35:50.655Z,161193.72
2018-03-30T10:38:18.310Z,161210.09
2018-03-30T10:40:46.101Z,161236.88
2018-03-30T10:43:13.779Z,161256.45
2018-03-30T10:45:41.442Z,161366.27
2018-03-30T10:48:09.119Z,161299.61
2018-03-30T10:50:36.795Z,161299.61
2018-03-30T10:53:04.583Z,161444.75
2018-03-30T10:55:32.566Z,161498.39
2018-03-30T10:58:00.243Z,161550.05
2018-03-30T11:00:28.021Z,161470.25
2018-03-30T11:02:55.704Z,161499.70
2018-03-30T11:05:23.612Z,161453.27
2018-03-30T11:07:51.404Z,161455.88
2018-03-30T11:10:19.030Z,161513.44
2018-03-30T11:12:46.697Z,161546.16
2018-03-30T11:15:14.646Z,161602.41
2018-03-30T11:17:42.265Z,161624.02
2018-03-30T11:20:09.932Z,161636.44
2018-03-30T11:22:37.681Z,161657.34
2018-03-30T11:25:05.315Z,161565.13
2018-03-30T11:27:33.062Z,161629.22
2018-03-30T11:30:00.742Z,161533.72
2018-03-30T11:32:28.414Z,161466.98
2018-03-30T11:34:57.086Z,161491.89
2018-03-30T11:37:24.904Z,161550.75
2018-03-30T11:39:52.673Z,161586.69
2018-03-30T11:42:20.452Z,161578.86
2018-03-30T11:44:49.155Z,161571.66
2018-03-30T11:47:17.030Z,161717.53
2018-03-30T11:49:44.700Z,161669.13
2018-03-30T11:52:12.481Z,161750.27
2018-03-30T11:54:40.216Z,161765.97
2018-03-30T11:57:08.039Z,161728.67
2018-03-30T11:59:35.715Z,161746.36
2018-03-30T12:02:03.493Z,161822.92
2018-03-30T12:04:31.159Z,161810.48
2018-03-30T12:06:58.843Z,161811.12
2018-03-30T12:09:26.523Z,161809.83
2018-03-30T12:11:54.299Z,161874.61
2018-03-30T12:14:22.179Z,161828.13
2018-03-30T12:16:50.169Z,161737.19
2018-03-30T12:19:17.913Z,161748.97
2018-03-30T12:21:45.633Z,161688.13
2018-03-30T12:24:13.394Z,161713.63
2018-03-30T12:26:41.007Z,161725.41
2018-03-30T12:29:08.846Z,161698.59
2018-03-30T12:31:36.462Z,161783.00
2018-03-30T12:34:04.289Z,161809.83
2018-03-30T12:36:32.078Z,161787.56
2018-03-30T12:38:59.819Z,161889.06
2018-03-30T12:41:27.634Z,161874.61
2018-03-30T12:43:55.299Z,161918.55
2018-03-30T12:46:22.975Z,161938.80
2018-03-30T12:48:50.765Z,162101.89
2018-03-30T12:51:18.505Z,162081.56
2018-03-30T12:53:46.317Z,162025.94
2018-03-30T12:56:14.097Z,162041.64
2018-03-30T12:58:41.872Z,162067.17
2018-03-30T13:01:09.642Z,161932.28
2018-03-30T13:03:37.314Z,161963.03
2018-03-30T13:06:05.152Z,161913.28
2018-03-30T13:08:32.888Z,161864.78
2018-03-30T13:11:00.556Z,161902.14
2018-03-30T13:13:28.234Z,162047.50
2018-03-30T13:15:56.021Z,162171.98
2018-03-30T13:18:23.792Z,162266.34
2018-03-30T13:20:51.470Z,162251.28
2018-03-30T13:23:19.247Z,162276.19
2018-03-30T13:25:47.024Z,162252.59
2018-03-30T13:28:14.753Z,162436.73
2018-03-30T13:30:42.363Z,162318.09
2018-03-30T13:33:10.044Z,162206.66
2018-03-30T13:35:37.929Z,162115.64
2018-03-30T13:38:05.673Z,162246.72
2018-03-30T13:40:33.384Z,162301.08
2018-03-30T13:43:01.061Z,162305.00
2018-03-30T13:45:28.836Z,162238.19
2018-03-30T13:47:56.614Z,162213.23
2018-03-30T13:50:26.136Z,162319.45
2018-03-30T13:52:54.864Z,162171.98
2018-03-30T13:55:23.017Z,162188.34
2018-03-30T13:57:51.643Z,162156.88
2018-03-30T14:00:25.030Z,162141.83
2018-03-30T14:02:54.553Z,162172.64
2018-03-30T14:05:25.491Z,162285.38
2018-03-30T14:08:08.948Z,162294.56
2018-03-30T14:10:36.830Z,162152.31
2018-03-30T14:13:06.851Z,162158.19
2018-03-30T14:15:34.594Z,162113.03
2018-03-30T14:18:15.282Z,162119.55
2018-03-30T14:20:46.884Z,162154.92
2018-03-30T14:23:17.291Z,162278.78
2018-03-30T14:25:45.823Z,162349.56
2018-03-30T14:28:16.353Z,162287.97
2018-03-30T14:30:47.892Z,162296.52
2018-03-30T14:33:18.167Z,162301.08
2018-03-30T14:38:52.289Z,162326.63
2018-03-30T14:41:20.521Z,162225.69
2018-03-30T14:43:49.018Z,162251.28
2018-03-30T14:46:22.623Z,162166.06
2018-03-30T14:48:54.090Z,162182.44
2018-03-30T14:51:25.459Z,162171.28
2018-03-30T14:57:01.681Z,162181.78
2018-03-30T15:02:27.026Z,162223.08
2018-03-30T15:07:59.246Z,162272.92
2018-03-30T15:13:25.611Z,162244.06
2018-03-30T15:18:56.304Z,162265.03
2018-03-30T15:21:38.922Z,162228.30
2018-03-30T15:24:11.211Z,162194.88
2018-03-30T15:26:39.809Z,162257.16
2018-03-30T15:29:10.359Z,162222.42
2018-03-30T15:31:43.966Z,162202.75
2018-03-30T15:34:15.594Z,162242.75
2018-03-30T15:39:42.223Z,162169.33
2018-03-30T15:42:09.999Z,162191.61
2018-03-30T15:44:52.576Z,162114.98
2018-03-30T15:47:20.251Z,162094.02
2018-03-30T15:49:47.969Z,162148.41
2018-03-30T15:52:16.538Z,162080.27
2018-03-30T15:54:44.306Z,162149.70
2018-03-30T15:57:12.432Z,162120.20
2018-03-30T15:59:40.201Z,162179.16
2018-03-30T16:02:07.998Z,162063.91
2018-03-30T16:04:35.770Z,162152.31
2018-03-30T16:07:05.530Z,162067.81
2018-03-30T16:09:33.274Z,162096.63
2018-03-30T16:12:03.819Z,162003.66
2018-03-30T16:14:31.450Z,162033.75
2018-03-30T16:16:59.273Z,162021.97
2018-03-30T16:19:26.537Z,162047.50
2018-03-30T16:21:53.697Z,162042.94
2018-03-30T16:24:20.968Z,162080.92
2018-03-30T16:26:48.236Z,161996.44
2018-03-30T16:29:15.344Z,161933.59
2018-03-30T16:31:42.556Z,161947.98
2018-03-30T16:34:09.603Z,162013.50
2018-03-30T16:36:36.775Z,161951.25
2018-03-30T16:39:03.952Z,161893.02
2018-03-30T16:41:31.098Z,161886.44
2018-03-30T16:43:58.228Z,161917.23
2018-03-30T16:46:25.437Z,161938.80
2018-03-30T16:48:53.319Z,161913.94
2018-03-30T16:51:20.465Z,161894.97
2018-03-30T16:53:47.639Z,161873.97
2018-03-30T16:56:14.909Z,161864.12
2018-03-30T16:58:42.226Z,161904.16
2018-03-30T17:01:09.852Z,161888.41
2018-03-30T17:03:37.119Z,161800.00
2018-03-30T17:06:04.287Z,161796.09
2018-03-30T17:08:31.551Z,161835.34
2018-03-30T17:10:59.726Z,161730.63
2018-03-30T17:13:26.912Z,161769.92
2018-03-30T17:15:54.165Z,161748.31
2018-03-30T17:18:21.383Z,161699.89
2018-03-30T17:20:48.489Z,161751.58
2018-03-30T17:23:15.644Z,161654.08
2018-03-30T17:25:42.819Z,161707.06
2018-03-30T17:28:09.975Z,161675.03
2018-03-30T17:30:37.194Z,161714.94
2018-03-30T17:33:04.511Z,161657.98
2018-03-30T17:35:31.784Z,161654.73
2018-03-30T17:37:59.046Z,161652.13
2018-03-30T17:40:26.313Z,161618.75
2018-03-30T17:42:53.511Z,161639.70
2018-03-30T17:45:20.637Z,161531.11
2018-03-30T17:47:47.899Z,161578.22
2018-03-30T17:50:15.128Z,161551.41
2018-03-30T17:52:42.218Z,161579.52
2018-03-30T17:55:09.495Z,161552.72
2018-03-30T17:57:36.964Z,161538.33
2018-03-30T18:00:04.129Z,161548.09
2018-03-30T18:02:31.219Z,161519.34
2018-03-30T18:04:58.350Z,161495.80
2018-03-30T18:07:25.524Z,161469.59
2018-03-30T18:09:52.786Z,161517.39
2018-03-30T18:12:20.001Z,161498.39
2018-03-30T18:14:47.107Z,161496.44
2018-03-30T18:17:14.268Z,161501.70
2018-03-30T18:19:41.441Z,161501.70
2018-03-30T18:22:08.507Z,161489.94
2018-03-30T18:24:35.668Z,161434.94
2018-03-30T18:27:03.032Z,161448.66
2018-03-30T18:29:30.189Z,161470.91
2018-03-30T18:31:57.459Z,161434.28
2018-03-30T18:34:24.677Z,161462.37
2018-03-30T18:36:51.900Z,161431.67
2018-03-30T18:39:19.051Z,161466.34
2018-03-30T18:41:46.320Z,161454.56
2018-03-30T18:44:13.402Z,161432.97
2018-03-30T18:46:40.515Z,161423.16
2018-03-30T18:49:07.693Z,161384.59
2018-03-30T18:51:35.308Z,161441.50
2018-03-30T18:54:02.656Z,161357.80
2018-03-30T18:56:29.810Z,161357.16
2018-03-30T18:58:56.964Z,161364.97
2018-03-30T19:01:24.140Z,161415.30
2018-03-30T19:03:51.403Z,161387.84
2018-03-30T19:06:18.676Z,161378.69
2018-03-30T19:08:45.841Z,161378.69
2018-03-30T19:11:13.173Z,161338.16
2018-03-30T19:13:40.261Z,161341.42
2018-03-30T19:16:07.528Z,161390.45
2018-03-30T19:18:34.792Z,161348.63
2018-03-30T19:21:02.019Z,161368.92
2018-03-30T19:23:29.224Z,161390.45
2018-03-30T19:25:56.490Z,161398.97
2018-03-30T19:28:23.570Z,161361.70
2018-03-30T19:30:50.816Z,161363.02
2018-03-30T19:33:17.977Z,161383.28
2018-03-30T19:35:45.142Z,161348.63
2018-03-30T19:38:12.410Z,161338.16
2018-03-30T19:40:39.628Z,161357.80
2018-03-30T19:43:06.785Z,161330.95
2018-03-30T19:45:34.206Z,161345.38
2018-03-30T19:48:01.372Z,161318.53
2018-03-30T19:50:29.044Z,161352.55
2018-03-30T19:52:56.312Z,161309.42
2018-03-30T19:55:23.478Z,161296.36
2018-03-30T19:57:50.692Z,161272.17
2018-03-30T20:00:17.796Z,161291.09
2018-03-30T20:02:45.071Z,161337.52
2018-03-30T20:05:12.341Z,161325.09
2018-03-30T20:07:39.501Z,161289.80
2018-03-30T20:10:06.767Z,161268.22
2018-03-30T20:12:34.031Z,161289.14
2018-03-30T20:15:01.186Z,161264.31
2018-03-30T20:17:28.461Z,161272.83
2018-03-30T20:19:55.551Z,161253.20
2018-03-30T20:22:23.123Z,161264.97
2018-03-30T20:24:50.171Z,161286.55
2018-03-30T20:27:17.392Z,161225.11
2018-03-30T20:29:44.580Z,161277.38
2018-03-30T20:32:11.851Z,161249.94
2018-03-30T20:34:38.902Z,161221.16
2018-03-30T20:37:05.978Z,161245.34
2018-03-30T20:39:33.201Z,161215.94
2018-03-30T20:42:00.506Z,161221.16
2018-03-30T20:44:27.559Z,161249.94
2018-03-30T20:46:54.734Z,161217.25
2018-03-30T20:49:21.888Z,161235.58
2018-03-30T20:51:48.955Z,161208.75
2018-03-30T20:54:16.533Z,161236.88
2018-03-30T20:56:43.739Z,161245.34
2018-03-30T20:59:10.790Z,161267.56
2018-03-30T21:01:38.122Z,161242.73
2018-03-30T21:04:05.385Z,161255.80
2018-03-30T21:06:32.652Z,161243.39
2018-03-30T21:08:59.814Z,161163.69
2018-03-30T21:11:27.042Z,161200.28
2018-03-30T21:13:54.245Z,161159.09
2018-03-30T21:16:21.404Z,161148.67
2018-03-30T21:18:48.674Z,161121.19
2018-03-30T21:21:15.945Z,161109.44
2018-03-30T21:23:43.207Z,161102.28
2018-03-30T21:26:10.263Z,161095.08
2018-03-30T21:28:37.326Z,161092.47
2018-03-30T21:31:04.489Z,161065.05
2018-03-30T21:33:31.659Z,161008.84
2018-03-30T21:35:58.811Z,160985.94
2018-03-30T21:38:26.085Z,160972.23
2018-03-30T21:40:53.232Z,160930.47
2018-03-30T21:43:20.409Z,160870.39
2018-03-30T21:45:47.572Z,160855.33
2018-03-30T21:48:14.737Z,160852.73
2018-03-30T21:50:42.007Z,160825.33
2018-03-30T21:53:09.275Z,160807.03
2018-03-30T21:55:36.423Z,160822.08
2018-03-30T21:58:03.586Z,160787.47
2018-03-30T22:00:30.975Z,160788.77
2018-03-30T22:02:58.232Z,160769.17
2018-03-30T22:05:25.432Z,160751.56
2018-03-30T22:07:52.554Z,160760.72
2018-03-30T22:10:19.814Z,160735.27
2018-03-30T22:12:47.361Z,160738.53
2018-03-30T22:15:14.562Z,160741.13
2018-03-30T22:17:41.829Z,160723.52
2018-03-30T22:20:09.264Z,160737.22
2018-03-30T22:22:36.563Z,160733.27
2018-03-30T22:25:03.626Z,160736.56
2018-03-30T22:27:31.086Z,160734.56
2018-03-30T22:29:58.253Z,160727.42
2018-03-30T22:32:25.528Z,160714.38
2018-03-30T22:34:52.838Z,160704.56
2018-03-30T22:37:20.059Z,160682.38
2018-03-30T22:39:47.142Z,160686.28
2018-03-30T22:42:14.298Z,160694.78
2018-03-30T22:44:41.439Z,160669.98
2018-03-30T22:47:08.611Z,160673.88
2018-03-30T22:49:35.874Z,160683.03
2018-03-30T22:52:03.032Z,160715.03
2018-03-30T22:54:30.202Z,160661.48
2018-03-30T22:56:57.370Z,160703.28
2018-03-30T22:59:24.531Z,160671.94
2018-03-30T23:01:51.714Z,160654.98
2018-03-30T23:04:18.849Z,160654.34
2018-03-30T23:06:46.018Z,160656.94
2018-03-30T23:09:13.184Z,160667.38
2018-03-30T23:11:40.353Z,160655.63
2018-03-30T23:14:07.512Z,160647.13
2018-03-30T23:16:34.674Z,160660.19
2018-03-30T23:19:02.247Z,160677.83
2018-03-30T23:21:29.302Z,160649.73
2018-03-30T23:23:56.574Z,160654.98
2018-03-30T23:26:23.840Z,160641.28
2018-03-30T23:28:51.107Z,160634.09
2018-03-30T23:31:18.258Z,160632.78
2018-03-30T23:33:45.328Z,160654.34
2018-03-30T23:36:12.493Z,160639.98
2018-03-30T23:38:39.762Z,160633.44
2018-03-30T23:41:06.924Z,160634.09
2018-03-30T23:43:34.189Z,160652.37
2018-03-30T23:46:01.343Z,160652.37
2018-03-30T23:48:28.617Z,160626.28
2018-03-30T23:50:55.770Z,160609.95
2018-03-30T23:53:23.051Z,160600.16
2018-03-30T23:55:50.320Z,160614.55
2018-03-30T23:58:17.583Z,160593.00
